sensor_id;sensor_type;location;lat;lon;timestamp;P1;durP1;ratioP1;P2;durP2;ratioP2
12218;SDS011;6172;42.646;23.344;2023-12-29T00:00:41;27.63;;;15.87;;
12218;SDS011;6172;42.646;23.344;2023-12-29T00:03:09;29.87;;;15.63;;
12218;SDS011;6172;42.646;23.344;2023-12-29T00:05:36;30.87;;;17.17;;
12218;SDS011;6172;42.646;23.344;2023-12-29T00:08:03;27.60;;;16.17;;
12218;SDS011;6172;42.646;23.344;2023-12-29T00:10:30;31.60;;;16.97;;
12218;SDS011;6172;42.646;23.344;2023-12-29T00:12:59;34.47;;;17.60;;
12218;SDS011;6172;42.646;23.344;2023-12-29T00:15:26;33.60;;;17.50;;
12218;SDS011;6172;42.646;23.344;2023-12-29T00:17:53;28.27;;;16.80;;
12218;SDS011;6172;42.646;23.344;2023-12-29T00:20:20;29.57;;;17.17;;
12218;SDS011;6172;42.646;23.344;2023-12-29T00:22:47;29.70;;;18.17;;
12218;SDS011;6172;42.646;23.344;2023-12-29T00:25:14;29.60;;;18.40;;
12218;SDS011;6172;42.646;23.344;2023-12-29T00:27:40;30.63;;;17.67;;
12218;SDS011;6172;42.646;23.344;2023-12-29T00:30:09;37.47;;;22.27;;
12218;SDS011;6172;42.646;23.344;2023-12-29T00:32:37;37.97;;;21.60;;
12218;SDS011;6172;42.646;23.344;2023-12-29T00:35:04;35.57;;;21.27;;
12218;SDS011;6172;42.646;23.344;2023-12-29T00:37:31;33.47;;;18.40;;
12218;SDS011;6172;42.646;23.344;2023-12-29T00:39:58;27.97;;;16.50;;
12218;SDS011;6172;42.646;23.344;2023-12-29T00:42:25;31.73;;;17.77;;
12218;SDS011;6172;42.646;23.344;2023-12-29T00:44:52;31.13;;;18.47;;
12218;SDS011;6172;42.646;23.344;2023-12-29T00:47:20;37.07;;;20.40;;
12218;SDS011;6172;42.646;23.344;2023-12-29T00:49:48;33.07;;;19.13;;
12218;SDS011;6172;42.646;23.344;2023-12-29T00:52:15;23.77;;;15.00;;
12218;SDS011;6172;42.646;23.344;2023-12-29T00:54:43;22.57;;;12.97;;
12218;SDS011;6172;42.646;23.344;2023-12-29T00:57:10;28.43;;;16.20;;
12218;SDS011;6172;42.646;23.344;2023-12-29T00:59:37;20.83;;;12.47;;
12218;SDS011;6172;42.646;23.344;2023-12-29T01:02:05;21.33;;;12.73;;
12218;SDS011;6172;42.646;23.344;2023-12-29T01:04:33;24.33;;;16.07;;
12218;SDS011;6172;42.646;23.344;2023-12-29T01:07:00;26.43;;;16.90;;
12218;SDS011;6172;42.646;23.344;2023-12-29T01:09:27;26.73;;;15.47;;
12218;SDS011;6172;42.646;23.344;2023-12-29T01:11:54;28.37;;;17.97;;
12218;SDS011;6172;42.646;23.344;2023-12-29T01:14:21;36.10;;;20.87;;
12218;SDS011;6172;42.646;23.344;2023-12-29T01:16:48;30.80;;;19.47;;
12218;SDS011;6172;42.646;23.344;2023-12-29T01:19:14;26.90;;;17.37;;
12218;SDS011;6172;42.646;23.344;2023-12-29T01:21:43;31.03;;;16.47;;
12218;SDS011;6172;42.646;23.344;2023-12-29T01:24:10;27.70;;;16.97;;
12218;SDS011;6172;42.646;23.344;2023-12-29T01:26:37;28.00;;;16.67;;
12218;SDS011;6172;42.646;23.344;2023-12-29T01:29:04;28.90;;;17.50;;
12218;SDS011;6172;42.646;23.344;2023-12-29T01:31:31;30.00;;;17.80;;
12218;SDS011;6172;42.646;23.344;2023-12-29T01:33:58;31.23;;;19.27;;
12218;SDS011;6172;42.646;23.344;2023-12-29T01:36:25;25.97;;;16.03;;
12218;SDS011;6172;42.646;23.344;2023-12-29T01:38:54;32.90;;;17.43;;
12218;SDS011;6172;42.646;23.344;2023-12-29T01:41:21;28.67;;;17.70;;
12218;SDS011;6172;42.646;23.344;2023-12-29T01:46:43;33.93;;;19.67;;
12218;SDS011;6172;42.646;23.344;2023-12-29T01:49:13;31.97;;;19.17;;
12218;SDS011;6172;42.646;23.344;2023-12-29T01:51:41;34.40;;;19.77;;
12218;SDS011;6172;42.646;23.344;2023-12-29T01:54:10;35.17;;;19.53;;
12218;SDS011;6172;42.646;23.344;2023-12-29T01:56:39;35.30;;;19.30;;
12218;SDS011;6172;42.646;23.344;2023-12-29T01:59:07;33.83;;;19.27;;
12218;SDS011;6172;42.646;23.344;2023-12-29T02:01:34;31.87;;;18.93;;
12218;SDS011;6172;42.646;23.344;2023-12-29T02:04:05;31.60;;;19.37;;
12218;SDS011;6172;42.646;23.344;2023-12-29T02:06:33;31.73;;;20.03;;
12218;SDS011;6172;42.646;23.344;2023-12-29T02:09:01;38.37;;;19.90;;
12218;SDS011;6172;42.646;23.344;2023-12-29T02:11:31;30.87;;;19.07;;
12218;SDS011;6172;42.646;23.344;2023-12-29T02:13:57;32.33;;;19.40;;
12218;SDS011;6172;42.646;23.344;2023-12-29T02:16:29;31.63;;;17.27;;
12218;SDS011;6172;42.646;23.344;2023-12-29T02:19:00;29.03;;;16.43;;
12218;SDS011;6172;42.646;23.344;2023-12-29T02:21:30;23.43;;;15.57;;
12218;SDS011;6172;42.646;23.344;2023-12-29T02:23:57;26.83;;;16.17;;
12218;SDS011;6172;42.646;23.344;2023-12-29T02:26:25;27.93;;;16.70;;
12218;SDS011;6172;42.646;23.344;2023-12-29T02:28:58;29.17;;;16.20;;
12218;SDS011;6172;42.646;23.344;2023-12-29T02:31:28;26.27;;;15.47;;
12218;SDS011;6172;42.646;23.344;2023-12-29T02:33:57;25.07;;;15.57;;
12218;SDS011;6172;42.646;23.344;2023-12-29T02:36:26;25.80;;;16.33;;
12218;SDS011;6172;42.646;23.344;2023-12-29T02:38:53;30.00;;;16.10;;
12218;SDS011;6172;42.646;23.344;2023-12-29T02:41:21;28.93;;;17.23;;
12218;SDS011;6172;42.646;23.344;2023-12-29T02:43:51;34.77;;;17.20;;
12218;SDS011;6172;42.646;23.344;2023-12-29T02:46:18;26.50;;;15.63;;
12218;SDS011;6172;42.646;23.344;2023-12-29T02:48:45;27.77;;;15.53;;
12218;SDS011;6172;42.646;23.344;2023-12-29T02:51:12;29.67;;;18.07;;
12218;SDS011;6172;42.646;23.344;2023-12-29T02:53:39;24.07;;;15.47;;
12218;SDS011;6172;42.646;23.344;2023-12-29T02:56:06;26.77;;;15.43;;
12218;SDS011;6172;42.646;23.344;2023-12-29T02:58:33;27.27;;;15.63;;
12218;SDS011;6172;42.646;23.344;2023-12-29T03:01:01;22.50;;;14.03;;
12218;SDS011;6172;42.646;23.344;2023-12-29T03:03:28;26.73;;;14.33;;
12218;SDS011;6172;42.646;23.344;2023-12-29T03:05:55;24.43;;;15.33;;
12218;SDS011;6172;42.646;23.344;2023-12-29T03:08:22;27.17;;;14.87;;
12218;SDS011;6172;42.646;23.344;2023-12-29T03:10:49;22.87;;;14.80;;
12218;SDS011;6172;42.646;23.344;2023-12-29T03:13:16;26.57;;;16.27;;
12218;SDS011;6172;42.646;23.344;2023-12-29T03:15:43;28.03;;;16.03;;
12218;SDS011;6172;42.646;23.344;2023-12-29T03:18:11;26.67;;;16.40;;
12218;SDS011;6172;42.646;23.344;2023-12-29T03:20:39;29.60;;;17.53;;
12218;SDS011;6172;42.646;23.344;2023-12-29T03:23:05;34.77;;;18.90;;
12218;SDS011;6172;42.646;23.344;2023-12-29T03:25:32;29.73;;;17.23;;
12218;SDS011;6172;42.646;23.344;2023-12-29T03:27:59;30.90;;;17.40;;
12218;SDS011;6172;42.646;23.344;2023-12-29T03:30:26;30.77;;;18.20;;
12218;SDS011;6172;42.646;23.344;2023-12-29T03:32:53;30.00;;;17.20;;
12218;SDS011;6172;42.646;23.344;2023-12-29T03:35:22;30.23;;;18.07;;
12218;SDS011;6172;42.646;23.344;2023-12-29T03:37:49;28.63;;;17.07;;
12218;SDS011;6172;42.646;23.344;2023-12-29T03:40:15;27.97;;;17.60;;
12218;SDS011;6172;42.646;23.344;2023-12-29T03:42:42;32.83;;;19.27;;
12218;SDS011;6172;42.646;23.344;2023-12-29T03:45:09;32.27;;;20.50;;
12218;SDS011;6172;42.646;23.344;2023-12-29T03:47:36;38.13;;;19.60;;
12218;SDS011;6172;42.646;23.344;2023-12-29T03:50:03;30.40;;;17.43;;
12218;SDS011;6172;42.646;23.344;2023-12-29T03:52:32;28.63;;;16.43;;
12218;SDS011;6172;42.646;23.344;2023-12-29T03:54:59;30.40;;;17.30;;
12218;SDS011;6172;42.646;23.344;2023-12-29T03:57:26;25.47;;;16.23;;
12218;SDS011;6172;42.646;23.344;2023-12-29T03:59:53;30.73;;;17.33;;
12218;SDS011;6172;42.646;23.344;2023-12-29T04:02:20;26.27;;;16.70;;
12218;SDS011;6172;42.646;23.344;2023-12-29T04:04:47;29.00;;;17.73;;
12218;SDS011;6172;42.646;23.344;2023-12-29T04:07:14;31.47;;;17.13;;
12218;SDS011;6172;42.646;23.344;2023-12-29T04:09:42;35.43;;;18.70;;
12218;SDS011;6172;42.646;23.344;2023-12-29T04:12:09;33.50;;;18.23;;
12218;SDS011;6172;42.646;23.344;2023-12-29T04:14:36;28.53;;;16.60;;
12218;SDS011;6172;42.646;23.344;2023-12-29T04:17:03;30.23;;;17.53;;
12218;SDS011;6172;42.646;23.344;2023-12-29T04:19:38;31.23;;;17.50;;
12218;SDS011;6172;42.646;23.344;2023-12-29T04:22:06;28.20;;;17.87;;
12218;SDS011;6172;42.646;23.344;2023-12-29T04:24:33;32.47;;;18.07;;
12218;SDS011;6172;42.646;23.344;2023-12-29T04:27:01;33.23;;;17.60;;
12218;SDS011;6172;42.646;23.344;2023-12-29T04:29:28;25.37;;;15.77;;
12218;SDS011;6172;42.646;23.344;2023-12-29T04:31:55;24.67;;;15.80;;
12218;SDS011;6172;42.646;23.344;2023-12-29T04:34:22;29.30;;;15.97;;
12218;SDS011;6172;42.646;23.344;2023-12-29T04:36:49;28.30;;;16.03;;
12218;SDS011;6172;42.646;23.344;2023-12-29T04:39:16;29.30;;;17.20;;
12218;SDS011;6172;42.646;23.344;2023-12-29T04:41:43;26.23;;;16.33;;
12218;SDS011;6172;42.646;23.344;2023-12-29T04:44:11;28.97;;;16.73;;
12218;SDS011;6172;42.646;23.344;2023-12-29T04:46:38;34.83;;;18.17;;
12218;SDS011;6172;42.646;23.344;2023-12-29T04:49:05;26.00;;;16.83;;
12218;SDS011;6172;42.646;23.344;2023-12-29T04:51:32;25.13;;;16.40;;
12218;SDS011;6172;42.646;23.344;2023-12-29T04:53:59;28.97;;;17.43;;
12218;SDS011;6172;42.646;23.344;2023-12-29T04:56:26;30.97;;;16.57;;
12218;SDS011;6172;42.646;23.344;2023-12-29T04:58:53;36.03;;;17.77;;
12218;SDS011;6172;42.646;23.344;2023-12-29T05:01:23;29.27;;;16.60;;
12218;SDS011;6172;42.646;23.344;2023-12-29T05:03:50;28.53;;;17.67;;
12218;SDS011;6172;42.646;23.344;2023-12-29T05:06:17;29.37;;;16.70;;
12218;SDS011;6172;42.646;23.344;2023-12-29T05:08:44;28.00;;;17.73;;
12218;SDS011;6172;42.646;23.344;2023-12-29T05:11:11;29.63;;;16.97;;
12218;SDS011;6172;42.646;23.344;2023-12-29T05:13:38;30.07;;;17.00;;
12218;SDS011;6172;42.646;23.344;2023-12-29T05:16:05;29.13;;;18.07;;
12218;SDS011;6172;42.646;23.344;2023-12-29T05:18:34;29.47;;;16.80;;
12218;SDS011;6172;42.646;23.344;2023-12-29T05:21:01;28.47;;;16.00;;
12218;SDS011;6172;42.646;23.344;2023-12-29T05:23:28;26.30;;;15.93;;
12218;SDS011;6172;42.646;23.344;2023-12-29T05:25:55;27.90;;;15.30;;
12218;SDS011;6172;42.646;23.344;2023-12-29T05:28:22;26.13;;;15.70;;
12218;SDS011;6172;42.646;23.344;2023-12-29T05:30:49;25.67;;;15.60;;
12218;SDS011;6172;42.646;23.344;2023-12-29T05:33:16;24.83;;;16.10;;
12218;SDS011;6172;42.646;23.344;2023-12-29T05:35:44;27.80;;;14.40;;
12218;SDS011;6172;42.646;23.344;2023-12-29T05:38:11;26.47;;;14.73;;
12218;SDS011;6172;42.646;23.344;2023-12-29T05:40:39;26.30;;;15.83;;
12218;SDS011;6172;42.646;23.344;2023-12-29T05:43:06;25.87;;;15.50;;
12218;SDS011;6172;42.646;23.344;2023-12-29T05:45:33;31.27;;;15.87;;
12218;SDS011;6172;42.646;23.344;2023-12-29T05:48:00;26.97;;;15.80;;
12218;SDS011;6172;42.646;23.344;2023-12-29T05:50:27;31.77;;;16.57;;
12218;SDS011;6172;42.646;23.344;2023-12-29T05:52:55;29.17;;;17.10;;
12218;SDS011;6172;42.646;23.344;2023-12-29T05:55:22;25.93;;;16.43;;
12218;SDS011;6172;42.646;23.344;2023-12-29T05:57:49;29.37;;;16.90;;
12218;SDS011;6172;42.646;23.344;2023-12-29T06:00:16;26.63;;;16.90;;
12218;SDS011;6172;42.646;23.344;2023-12-29T06:02:44;40.93;;;21.50;;
12218;SDS011;6172;42.646;23.344;2023-12-29T06:05:11;40.00;;;22.03;;
12218;SDS011;6172;42.646;23.344;2023-12-29T06:07:38;37.23;;;21.90;;
12218;SDS011;6172;42.646;23.344;2023-12-29T06:10:07;39.70;;;23.50;;
12218;SDS011;6172;42.646;23.344;2023-12-29T06:12:34;29.00;;;17.63;;
12218;SDS011;6172;42.646;23.344;2023-12-29T06:15:02;51.70;;;26.70;;
12218;SDS011;6172;42.646;23.344;2023-12-29T06:17:29;43.03;;;25.23;;
12218;SDS011;6172;42.646;23.344;2023-12-29T06:19:57;42.60;;;23.27;;
12218;SDS011;6172;42.646;23.344;2023-12-29T06:22:26;37.10;;;21.43;;
12218;SDS011;6172;42.646;23.344;2023-12-29T06:24:54;34.83;;;21.67;;
12218;SDS011;6172;42.646;23.344;2023-12-29T06:27:22;39.83;;;22.50;;
12218;SDS011;6172;42.646;23.344;2023-12-29T06:29:49;35.73;;;22.20;;
12218;SDS011;6172;42.646;23.344;2023-12-29T06:32:16;33.87;;;20.20;;
12218;SDS011;6172;42.646;23.344;2023-12-29T06:34:43;34.10;;;22.20;;
12218;SDS011;6172;42.646;23.344;2023-12-29T06:37:10;36.43;;;22.07;;
12218;SDS011;6172;42.646;23.344;2023-12-29T06:39:37;33.47;;;18.80;;
12218;SDS011;6172;42.646;23.344;2023-12-29T06:42:05;31.00;;;18.87;;
12218;SDS011;6172;42.646;23.344;2023-12-29T06:44:33;34.57;;;19.03;;
12218;SDS011;6172;42.646;23.344;2023-12-29T06:47:00;30.10;;;18.60;;
12218;SDS011;6172;42.646;23.344;2023-12-29T06:49:30;38.70;;;21.97;;
12218;SDS011;6172;42.646;23.344;2023-12-29T06:51:57;31.57;;;18.33;;
12218;SDS011;6172;42.646;23.344;2023-12-29T06:54:24;28.30;;;17.60;;
12218;SDS011;6172;42.646;23.344;2023-12-29T06:56:51;25.43;;;15.70;;
12218;SDS011;6172;42.646;23.344;2023-12-29T06:59:18;21.53;;;13.07;;
12218;SDS011;6172;42.646;23.344;2023-12-29T07:01:46;19.87;;;13.10;;
12218;SDS011;6172;42.646;23.344;2023-12-29T07:04:13;20.73;;;14.13;;
12218;SDS011;6172;42.646;23.344;2023-12-29T07:06:40;23.07;;;15.23;;
12218;SDS011;6172;42.646;23.344;2023-12-29T07:09:08;27.43;;;15.17;;
12218;SDS011;6172;42.646;23.344;2023-12-29T07:11:35;18.97;;;12.47;;
12218;SDS011;6172;42.646;23.344;2023-12-29T07:14:02;23.07;;;13.50;;
12218;SDS011;6172;42.646;23.344;2023-12-29T07:16:29;22.07;;;12.23;;
12218;SDS011;6172;42.646;23.344;2023-12-29T07:18:58;19.57;;;12.93;;
12218;SDS011;6172;42.646;23.344;2023-12-29T07:21:25;21.83;;;12.90;;
12218;SDS011;6172;42.646;23.344;2023-12-29T07:23:52;17.10;;;11.80;;
12218;SDS011;6172;42.646;23.344;2023-12-29T07:26:19;20.57;;;12.23;;
12218;SDS011;6172;42.646;23.344;2023-12-29T07:28:46;19.97;;;13.57;;
12218;SDS011;6172;42.646;23.344;2023-12-29T07:31:13;21.00;;;13.43;;
12218;SDS011;6172;42.646;23.344;2023-12-29T07:33:40;18.60;;;12.47;;
12218;SDS011;6172;42.646;23.344;2023-12-29T07:36:09;17.37;;;11.73;;
12218;SDS011;6172;42.646;23.344;2023-12-29T07:38:36;16.03;;;11.30;;
12218;SDS011;6172;42.646;23.344;2023-12-29T07:41:03;16.47;;;11.53;;
12218;SDS011;6172;42.646;23.344;2023-12-29T07:43:31;17.77;;;10.53;;
12218;SDS011;6172;42.646;23.344;2023-12-29T07:45:58;15.57;;;11.07;;
12218;SDS011;6172;42.646;23.344;2023-12-29T07:48:25;16.80;;;11.37;;
12218;SDS011;6172;42.646;23.344;2023-12-29T07:50:52;17.83;;;11.67;;
12218;SDS011;6172;42.646;23.344;2023-12-29T07:53:20;19.13;;;11.47;;
12218;SDS011;6172;42.646;23.344;2023-12-29T07:55:47;17.53;;;11.60;;
12218;SDS011;6172;42.646;23.344;2023-12-29T07:58:15;16.77;;;11.03;;
12218;SDS011;6172;42.646;23.344;2023-12-29T08:00:42;18.33;;;12.10;;
12218;SDS011;6172;42.646;23.344;2023-12-29T08:03:09;19.67;;;12.47;;
12218;SDS011;6172;42.646;23.344;2023-12-29T08:05:36;18.07;;;12.80;;
12218;SDS011;6172;42.646;23.344;2023-12-29T08:08:03;20.70;;;13.60;;
12218;SDS011;6172;42.646;23.344;2023-12-29T08:10:32;21.47;;;13.57;;
12218;SDS011;6172;42.646;23.344;2023-12-29T08:12:59;21.80;;;13.73;;
12218;SDS011;6172;42.646;23.344;2023-12-29T08:15:26;22.03;;;13.87;;
12218;SDS011;6172;42.646;23.344;2023-12-29T08:17:53;21.13;;;13.13;;
12218;SDS011;6172;42.646;23.344;2023-12-29T08:20:20;21.37;;;14.10;;
12218;SDS011;6172;42.646;23.344;2023-12-29T08:22:49;20.33;;;13.43;;
12218;SDS011;6172;42.646;23.344;2023-12-29T08:25:16;21.30;;;14.17;;
12218;SDS011;6172;42.646;23.344;2023-12-29T08:27:44;24.37;;;14.80;;
12218;SDS011;6172;42.646;23.344;2023-12-29T08:30:12;23.47;;;14.50;;
12218;SDS011;6172;42.646;23.344;2023-12-29T08:32:39;24.07;;;14.73;;
12218;SDS011;6172;42.646;23.344;2023-12-29T08:35:06;19.83;;;15.20;;
12218;SDS011;6172;42.646;23.344;2023-12-29T08:37:33;24.90;;;16.40;;
12218;SDS011;6172;42.646;23.344;2023-12-29T08:40:00;27.37;;;18.63;;
12218;SDS011;6172;42.646;23.344;2023-12-29T08:42:28;34.00;;;23.50;;
12218;SDS011;6172;42.646;23.344;2023-12-29T08:44:58;44.50;;;26.47;;
12218;SDS011;6172;42.646;23.344;2023-12-29T08:47:25;36.80;;;26.37;;
12218;SDS011;6172;42.646;23.344;2023-12-29T08:49:52;42.63;;;27.90;;
12218;SDS011;6172;42.646;23.344;2023-12-29T08:52:22;39.37;;;26.60;;
12218;SDS011;6172;42.646;23.344;2023-12-29T08:55:15;43.80;;;27.43;;
12218;SDS011;6172;42.646;23.344;2023-12-29T08:57:43;47.57;;;28.90;;
12218;SDS011;6172;42.646;23.344;2023-12-29T09:03:01;39.37;;;24.90;;
12218;SDS011;6172;42.646;23.344;2023-12-29T09:05:43;40.97;;;27.23;;
12218;SDS011;6172;42.646;23.344;2023-12-29T09:08:10;41.73;;;28.20;;
12218;SDS011;6172;42.646;23.344;2023-12-29T09:10:38;39.53;;;27.00;;
12218;SDS011;6172;42.646;23.344;2023-12-29T09:13:06;37.67;;;24.57;;
12218;SDS011;6172;42.646;23.344;2023-12-29T09:15:36;29.57;;;22.23;;
12218;SDS011;6172;42.646;23.344;2023-12-29T09:18:04;35.80;;;23.70;;
12218;SDS011;6172;42.646;23.344;2023-12-29T09:20:41;33.33;;;23.63;;
12218;SDS011;6172;42.646;23.344;2023-12-29T09:23:10;35.83;;;23.37;;
12218;SDS011;6172;42.646;23.344;2023-12-29T09:26:05;31.17;;;21.90;;
12218;SDS011;6172;42.646;23.344;2023-12-29T09:28:35;31.07;;;22.40;;
12218;SDS011;6172;42.646;23.344;2023-12-29T09:31:03;28.13;;;20.27;;
12218;SDS011;6172;42.646;23.344;2023-12-29T09:33:30;30.70;;;20.43;;
12218;SDS011;6172;42.646;23.344;2023-12-29T09:35:57;25.57;;;19.23;;
12218;SDS011;6172;42.646;23.344;2023-12-29T09:38:24;25.73;;;18.07;;
12218;SDS011;6172;42.646;23.344;2023-12-29T09:40:51;25.77;;;17.13;;
12218;SDS011;6172;42.646;23.344;2023-12-29T09:43:19;25.30;;;16.47;;
12218;SDS011;6172;42.646;23.344;2023-12-29T09:45:46;24.47;;;16.80;;
12218;SDS011;6172;42.646;23.344;2023-12-29T09:48:17;24.00;;;15.93;;
12218;SDS011;6172;42.646;23.344;2023-12-29T09:50:47;21.10;;;14.67;;
12218;SDS011;6172;42.646;23.344;2023-12-29T09:53:17;20.73;;;14.53;;
12218;SDS011;6172;42.646;23.344;2023-12-29T09:55:47;20.73;;;14.93;;
12218;SDS011;6172;42.646;23.344;2023-12-29T09:58:15;21.37;;;15.90;;
12218;SDS011;6172;42.646;23.344;2023-12-29T10:00:44;23.90;;;17.83;;
12218;SDS011;6172;42.646;23.344;2023-12-29T10:03:13;25.20;;;16.97;;
12218;SDS011;6172;42.646;23.344;2023-12-29T10:05:41;26.10;;;17.97;;
12218;SDS011;6172;42.646;23.344;2023-12-29T10:08:11;33.57;;;18.83;;
12218;SDS011;6172;42.646;23.344;2023-12-29T10:10:40;25.53;;;17.70;;
12218;SDS011;6172;42.646;23.344;2023-12-29T10:13:10;23.00;;;16.57;;
12218;SDS011;6172;42.646;23.344;2023-12-29T10:15:42;27.57;;;18.00;;
12218;SDS011;6172;42.646;23.344;2023-12-29T10:18:14;27.37;;;18.03;;
12218;SDS011;6172;42.646;23.344;2023-12-29T10:20:50;33.23;;;18.30;;
12218;SDS011;6172;42.646;23.344;2023-12-29T10:23:28;24.27;;;16.80;;
12218;SDS011;6172;42.646;23.344;2023-12-29T10:26:01;22.97;;;16.20;;
12218;SDS011;6172;42.646;23.344;2023-12-29T10:28:29;26.87;;;17.83;;
12218;SDS011;6172;42.646;23.344;2023-12-29T10:30:56;24.43;;;17.63;;
12218;SDS011;6172;42.646;23.344;2023-12-29T10:33:23;27.17;;;18.77;;
12218;SDS011;6172;42.646;23.344;2023-12-29T10:35:57;23.57;;;17.53;;
12218;SDS011;6172;42.646;23.344;2023-12-29T10:38:28;27.90;;;16.90;;
12218;SDS011;6172;42.646;23.344;2023-12-29T10:40:55;25.70;;;15.30;;
12218;SDS011;6172;42.646;23.344;2023-12-29T10:43:37;18.73;;;13.90;;
12218;SDS011;6172;42.646;23.344;2023-12-29T10:46:05;22.77;;;15.13;;
12218;SDS011;6172;42.646;23.344;2023-12-29T10:48:33;25.30;;;16.43;;
12218;SDS011;6172;42.646;23.344;2023-12-29T10:51:02;23.47;;;15.70;;
12218;SDS011;6172;42.646;23.344;2023-12-29T10:53:30;25.93;;;15.97;;
12218;SDS011;6172;42.646;23.344;2023-12-29T10:55:58;24.70;;;15.83;;
12218;SDS011;6172;42.646;23.344;2023-12-29T10:58:25;22.07;;;15.30;;
12218;SDS011;6172;42.646;23.344;2023-12-29T11:00:54;23.73;;;18.13;;
12218;SDS011;6172;42.646;23.344;2023-12-29T11:03:21;25.00;;;18.33;;
12218;SDS011;6172;42.646;23.344;2023-12-29T11:05:49;29.07;;;18.83;;
12218;SDS011;6172;42.646;23.344;2023-12-29T11:08:18;27.47;;;19.10;;
12218;SDS011;6172;42.646;23.344;2023-12-29T11:10:48;36.10;;;19.10;;
12218;SDS011;6172;42.646;23.344;2023-12-29T11:13:15;30.50;;;19.17;;
12218;SDS011;6172;42.646;23.344;2023-12-29T11:15:42;32.70;;;20.00;;
12218;SDS011;6172;42.646;23.344;2023-12-29T11:18:11;28.67;;;20.33;;
12218;SDS011;6172;42.646;23.344;2023-12-29T11:20:40;33.73;;;21.07;;
12218;SDS011;6172;42.646;23.344;2023-12-29T11:23:08;37.67;;;22.57;;
12218;SDS011;6172;42.646;23.344;2023-12-29T11:25:39;34.30;;;24.10;;
12218;SDS011;6172;42.646;23.344;2023-12-29T11:28:08;39.30;;;25.23;;
12218;SDS011;6172;42.646;23.344;2023-12-29T11:30:37;39.23;;;26.70;;
12218;SDS011;6172;42.646;23.344;2023-12-29T11:33:06;37.97;;;25.80;;
12218;SDS011;6172;42.646;23.344;2023-12-29T11:35:38;43.60;;;24.57;;
12218;SDS011;6172;42.646;23.344;2023-12-29T11:38:24;35.40;;;25.70;;
12218;SDS011;6172;42.646;23.344;2023-12-29T11:41:03;36.93;;;26.73;;
12218;SDS011;6172;42.646;23.344;2023-12-29T11:43:35;37.77;;;25.70;;
12218;SDS011;6172;42.646;23.344;2023-12-29T11:46:02;35.63;;;25.07;;
12218;SDS011;6172;42.646;23.344;2023-12-29T11:51:27;36.87;;;24.37;;
12218;SDS011;6172;42.646;23.344;2023-12-29T11:53:54;40.33;;;25.00;;
12218;SDS011;6172;42.646;23.344;2023-12-29T11:56:23;40.00;;;25.83;;
12218;SDS011;6172;42.646;23.344;2023-12-29T11:58:50;40.53;;;26.43;;
12218;SDS011;6172;42.646;23.344;2023-12-29T12:04:02;34.90;;;24.87;;
12218;SDS011;6172;42.646;23.344;2023-12-29T12:06:38;34.53;;;24.77;;
12218;SDS011;6172;42.646;23.344;2023-12-29T12:09:21;38.67;;;24.77;;
12218;SDS011;6172;42.646;23.344;2023-12-29T12:11:50;36.53;;;24.77;;
12218;SDS011;6172;42.646;23.344;2023-12-29T12:17:28;38.13;;;22.83;;
12218;SDS011;6172;42.646;23.344;2023-12-29T12:19:57;34.00;;;22.23;;
12218;SDS011;6172;42.646;23.344;2023-12-29T12:22:25;40.77;;;24.17;;
12218;SDS011;6172;42.646;23.344;2023-12-29T12:24:55;26.97;;;19.23;;
12218;SDS011;6172;42.646;23.344;2023-12-29T12:27:26;31.00;;;18.40;;
12218;SDS011;6172;42.646;23.344;2023-12-29T12:29:54;26.90;;;17.13;;
12218;SDS011;6172;42.646;23.344;2023-12-29T12:32:27;21.33;;;15.10;;
12218;SDS011;6172;42.646;23.344;2023-12-29T12:34:56;25.97;;;15.87;;
12218;SDS011;6172;42.646;23.344;2023-12-29T12:37:23;20.10;;;14.03;;
12218;SDS011;6172;42.646;23.344;2023-12-29T12:39:52;22.03;;;14.40;;
12218;SDS011;6172;42.646;23.344;2023-12-29T12:42:19;27.00;;;15.70;;
12218;SDS011;6172;42.646;23.344;2023-12-29T12:44:54;22.00;;;15.17;;
12218;SDS011;6172;42.646;23.344;2023-12-29T12:47:24;28.60;;;16.53;;
12218;SDS011;6172;42.646;23.344;2023-12-29T12:49:54;24.57;;;16.20;;
12218;SDS011;6172;42.646;23.344;2023-12-29T12:52:21;30.30;;;17.90;;
12218;SDS011;6172;42.646;23.344;2023-12-29T12:54:48;23.20;;;16.20;;
12218;SDS011;6172;42.646;23.344;2023-12-29T12:57:19;26.90;;;16.17;;
12218;SDS011;6172;42.646;23.344;2023-12-29T12:59:47;24.40;;;14.13;;
12218;SDS011;6172;42.646;23.344;2023-12-29T13:02:17;25.37;;;15.20;;
12218;SDS011;6172;42.646;23.344;2023-12-29T13:04:45;24.83;;;16.07;;
12218;SDS011;6172;42.646;23.344;2023-12-29T13:07:14;20.87;;;13.67;;
12218;SDS011;6172;42.646;23.344;2023-12-29T13:09:42;23.47;;;14.20;;
12218;SDS011;6172;42.646;23.344;2023-12-29T13:12:10;22.37;;;13.97;;
12218;SDS011;6172;42.646;23.344;2023-12-29T13:14:38;22.97;;;13.97;;
12218;SDS011;6172;42.646;23.344;2023-12-29T13:17:07;20.23;;;13.17;;
12218;SDS011;6172;42.646;23.344;2023-12-29T13:19:37;23.10;;;13.03;;
12218;SDS011;6172;42.646;23.344;2023-12-29T13:22:06;21.37;;;12.93;;
12218;SDS011;6172;42.646;23.344;2023-12-29T13:24:34;20.20;;;13.07;;
12218;SDS011;6172;42.646;23.344;2023-12-29T13:27:04;24.83;;;11.13;;
12218;SDS011;6172;42.646;23.344;2023-12-29T13:29:32;17.97;;;10.97;;
12218;SDS011;6172;42.646;23.344;2023-12-29T13:32:02;16.47;;;10.27;;
12218;SDS011;6172;42.646;23.344;2023-12-29T13:34:34;15.63;;;8.90;;
12218;SDS011;6172;42.646;23.344;2023-12-29T13:37:22;13.70;;;8.87;;
12218;SDS011;6172;42.646;23.344;2023-12-29T13:39:53;10.80;;;6.63;;
12218;SDS011;6172;42.646;23.344;2023-12-29T13:42:26;12.53;;;7.47;;
12218;SDS011;6172;42.646;23.344;2023-12-29T13:44:56;14.17;;;7.77;;
12218;SDS011;6172;42.646;23.344;2023-12-29T13:47:24;18.20;;;7.90;;
12218;SDS011;6172;42.646;23.344;2023-12-29T13:49:52;15.23;;;7.00;;
12218;SDS011;6172;42.646;23.344;2023-12-29T13:52:19;12.67;;;7.23;;
12218;SDS011;6172;42.646;23.344;2023-12-29T13:54:46;14.27;;;7.27;;
12218;SDS011;6172;42.646;23.344;2023-12-29T13:57:15;12.20;;;7.10;;
12218;SDS011;6172;42.646;23.344;2023-12-29T13:59:42;15.37;;;7.47;;
12218;SDS011;6172;42.646;23.344;2023-12-29T14:02:23;12.03;;;7.23;;
12218;SDS011;6172;42.646;23.344;2023-12-29T14:07:46;12.47;;;6.90;;
12218;SDS011;6172;42.646;23.344;2023-12-29T14:10:19;16.73;;;9.00;;
12218;SDS011;6172;42.646;23.344;2023-12-29T14:12:46;16.47;;;8.70;;
12218;SDS011;6172;42.646;23.344;2023-12-29T14:15:13;18.30;;;8.33;;
12218;SDS011;6172;42.646;23.344;2023-12-29T14:17:40;16.77;;;9.13;;
12218;SDS011;6172;42.646;23.344;2023-12-29T14:20:08;17.20;;;7.83;;
12218;SDS011;6172;42.646;23.344;2023-12-29T14:22:37;15.77;;;8.07;;
12218;SDS011;6172;42.646;23.344;2023-12-29T14:25:05;17.50;;;10.03;;
12218;SDS011;6172;42.646;23.344;2023-12-29T14:27:34;20.43;;;10.00;;
12218;SDS011;6172;42.646;23.344;2023-12-29T14:30:01;17.23;;;10.57;;
12218;SDS011;6172;42.646;23.344;2023-12-29T14:32:30;17.40;;;9.80;;
12218;SDS011;6172;42.646;23.344;2023-12-29T14:34:57;26.73;;;11.23;;
12218;SDS011;6172;42.646;23.344;2023-12-29T14:37:24;20.97;;;10.07;;
12218;SDS011;6172;42.646;23.344;2023-12-29T14:39:53;17.00;;;8.60;;
12218;SDS011;6172;42.646;23.344;2023-12-29T14:42:20;10.70;;;6.90;;
12218;SDS011;6172;42.646;23.344;2023-12-29T14:44:47;13.53;;;7.63;;
12218;SDS011;6172;42.646;23.344;2023-12-29T14:47:15;14.27;;;7.03;;